sensor_id;sensor_type;location;lat;lon;timestamp;temperature;humidity
13856;DHT22;6998;53.608;9.958;2023-04-22T00:01:59;10.50;99.90
13856;DHT22;6998;53.608;9.958;2023-04-22T00:04:27;10.50;99.90
13856;DHT22;6998;53.608;9.958;2023-04-22T00:06:55;10.50;99.90
13856;DHT22;6998;53.608;9.958;2023-04-22T00:09:22;10.40;99.90
13856;DHT22;6998;53.608;9.958;2023-04-22T00:11:50;10.50;99.90
13856;DHT22;6998;53.608;9.958;2023-04-22T00:14:16;10.50;99.90
13856;DHT22;6998;53.608;9.958;2023-04-22T00:16:43;10.50;99.90
13856;DHT22;6998;53.608;9.958;2023-04-22T00:19:10;10.40;99.90
13856;DHT22;6998;53.608;9.958;2023-04-22T00:21:37;10.30;99.90
13856;DHT22;6998;53.608;9.958;2023-04-22T00:24:05;10.40;99.90
13856;DHT22;6998;53.608;9.958;2023-04-22T00:26:32;10.40;99.90
13856;DHT22;6998;53.608;9.958;2023-04-22T00:28:59;10.30;99.90
13856;DHT22;6998;53.608;9.958;2023-04-22T00:31:26;10.30;99.90
13856;DHT22;6998;53.608;9.958;2023-04-22T00:33:53;10.30;99.90
13856;DHT22;6998;53.608;9.958;2023-04-22T00:36:19;10.40;99.90
13856;DHT22;6998;53.608;9.958;2023-04-22T00:38:48;10.30;99.90
13856;DHT22;6998;53.608;9.958;2023-04-22T00:41:18;10.30;99.90
13856;DHT22;6998;53.608;9.958;2023-04-22T00:43:45;10.20;99.90
13856;DHT22;6998;53.608;9.958;2023-04-22T00:46:13;10.20;99.90
13856;DHT22;6998;53.608;9.958;2023-04-22T00:48:41;10.30;99.90
13856;DHT22;6998;53.608;9.958;2023-04-22T00:51:08;10.30;99.90
13856;DHT22;6998;53.608;9.958;2023-04-22T00:53:35;10.30;99.90
13856;DHT22;6998;53.608;9.958;2023-04-22T00:56:01;10.30;99.90
13856;DHT22;6998;53.608;9.958;2023-04-22T00:58:30;10.30;99.90
13856;DHT22;6998;53.608;9.958;2023-04-22T01:00:57;10.10;99.90
13856;DHT22;6998;53.608;9.958;2023-04-22T01:03:25;10.10;99.90
13856;DHT22;6998;53.608;9.958;2023-04-22T01:05:55;10.00;99.90
13856;DHT22;6998;53.608;9.958;2023-04-22T01:08:23;9.90;99.90
13856;DHT22;6998;53.608;9.958;2023-04-22T01:10:53;10.00;99.90
13856;DHT22;6998;53.608;9.958;2023-04-22T01:13:20;9.90;99.90
13856;DHT22;6998;53.608;9.958;2023-04-22T01:15:50;9.90;99.90
13856;DHT22;6998;53.608;9.958;2023-04-22T01:21:21;10.00;99.90
13856;DHT22;6998;53.608;9.958;2023-04-22T01:23:50;9.90;99.90
13856;DHT22;6998;53.608;9.958;2023-04-22T01:26:17;10.00;99.90
13856;DHT22;6998;53.608;9.958;2023-04-22T01:28:44;9.90;99.90
13856;DHT22;6998;53.608;9.958;2023-04-22T01:31:11;10.00;99.90
13856;DHT22;6998;53.608;9.958;2023-04-22T01:33:40;9.90;99.90
13856;DHT22;6998;53.608;9.958;2023-04-22T01:36:07;9.90;99.90
13856;DHT22;6998;53.608;9.958;2023-04-22T01:38:34;9.80;99.90
13856;DHT22;6998;53.608;9.958;2023-04-22T01:41:02;9.80;99.90
13856;DHT22;6998;53.608;9.958;2023-04-22T01:43:29;9.80;99.90
13856;DHT22;6998;53.608;9.958;2023-04-22T01:45:56;9.80;99.90
13856;DHT22;6998;53.608;9.958;2023-04-22T01:48:23;9.70;99.90
13856;DHT22;6998;53.608;9.958;2023-04-22T01:50:50;9.60;99.90
13856;DHT22;6998;53.608;9.958;2023-04-22T01:53:17;9.60;99.90
13856;DHT22;6998;53.608;9.958;2023-04-22T01:55:43;9.60;99.90
13856;DHT22;6998;53.608;9.958;2023-04-22T01:58:12;9.60;99.90
13856;DHT22;6998;53.608;9.958;2023-04-22T02:00:39;9.50;99.90
13856;DHT22;6998;53.608;9.958;2023-04-22T02:03:05;9.40;99.90
13856;DHT22;6998;53.608;9.958;2023-04-22T02:05:32;9.40;99.90
13856;DHT22;6998;53.608;9.958;2023-04-22T02:07:59;9.40;99.90
13856;DHT22;6998;53.608;9.958;2023-04-22T02:10:28;9.50;99.90
13856;DHT22;6998;53.608;9.958;2023-04-22T02:12:55;9.40;99.90
13856;DHT22;6998;53.608;9.958;2023-04-22T02:15:23;9.40;99.90
13856;DHT22;6998;53.608;9.958;2023-04-22T02:17:50;9.30;99.90
13856;DHT22;6998;53.608;9.958;2023-04-22T02:20:17;9.50;99.90
13856;DHT22;6998;53.608;9.958;2023-04-22T02:22:46;9.50;99.90
13856;DHT22;6998;53.608;9.958;2023-04-22T02:25:15;9.50;99.90
13856;DHT22;6998;53.608;9.958;2023-04-22T02:27:42;9.40;99.90
13856;DHT22;6998;53.608;9.958;2023-04-22T02:30:09;9.40;99.90
13856;DHT22;6998;53.608;9.958;2023-04-22T02:32:37;9.40;99.90
13856;DHT22;6998;53.608;9.958;2023-04-22T02:35:08;9.40;99.90
13856;DHT22;6998;53.608;9.958;2023-04-22T02:37:35;9.50;99.90
13856;DHT22;6998;53.608;9.958;2023-04-22T02:40:04;9.50;99.90
13856;DHT22;6998;53.608;9.958;2023-04-22T02:42:32;9.50;99.90
13856;DHT22;6998;53.608;9.958;2023-04-22T02:44:58;9.40;99.90
13856;DHT22;6998;53.608;9.958;2023-04-22T02:47:25;9.40;99.90
13856;DHT22;6998;53.608;9.958;2023-04-22T02:49:53;9.40;99.90
13856;DHT22;6998;53.608;9.958;2023-04-22T02:52:20;9.40;99.90
13856;DHT22;6998;53.608;9.958;2023-04-22T02:54:47;9.40;99.90
13856;DHT22;6998;53.608;9.958;2023-04-22T02:57:13;9.50;99.90
13856;DHT22;6998;53.608;9.958;2023-04-22T02:59:40;9.40;99.90
13856;DHT22;6998;53.608;9.958;2023-04-22T03:02:07;9.30;99.90
13856;DHT22;6998;53.608;9.958;2023-04-22T03:04:35;9.30;99.90
13856;DHT22;6998;53.608;9.958;2023-04-22T03:07:03;9.30;99.90
13856;DHT22;6998;53.608;9.958;2023-04-22T03:09:30;9.20;99.90
13856;DHT22;6998;53.608;9.958;2023-04-22T03:11:57;9.20;99.90
13856;DHT22;6998;53.608;9.958;2023-04-22T03:14:24;9.20;99.90
13856;DHT22;6998;53.608;9.958;2023-04-22T03:16:50;9.20;99.90
13856;DHT22;6998;53.608;9.958;2023-04-22T03:19:17;9.20;99.90
13856;DHT22;6998;53.608;9.958;2023-04-22T03:21:44;9.20;99.90
13856;DHT22;6998;53.608;9.958;2023-04-22T03:24:12;9.20;99.90
13856;DHT22;6998;53.608;9.958;2023-04-22T03:26:39;9.20;99.90
13856;DHT22;6998;53.608;9.958;2023-04-22T03:29:05;9.30;99.90
13856;DHT22;6998;53.608;9.958;2023-04-22T03:31:32;9.40;99.90
13856;DHT22;6998;53.608;9.958;2023-04-22T03:33:59;9.30;99.90
13856;DHT22;6998;53.608;9.958;2023-04-22T03:36:26;9.20;99.90
13856;DHT22;6998;53.608;9.958;2023-04-22T03:38:53;9.20;99.90
13856;DHT22;6998;53.608;9.958;2023-04-22T03:41:21;9.30;99.90
13856;DHT22;6998;53.608;9.958;2023-04-22T03:43:52;9.20;99.90
13856;DHT22;6998;53.608;9.958;2023-04-22T03:46:19;9.10;99.90
13856;DHT22;6998;53.608;9.958;2023-04-22T03:48:46;9.20;99.90
13856;DHT22;6998;53.608;9.958;2023-04-22T03:51:13;9.10;99.90
13856;DHT22;6998;53.608;9.958;2023-04-22T03:53:40;9.10;99.90
13856;DHT22;6998;53.608;9.958;2023-04-22T03:56:07;9.10;99.90
13856;DHT22;6998;53.608;9.958;2023-04-22T03:58:42;9.00;99.90
13856;DHT22;6998;53.608;9.958;2023-04-22T04:01:09;9.10;99.90
13856;DHT22;6998;53.608;9.958;2023-04-22T04:03:36;9.10;99.90
13856;DHT22;6998;53.608;9.958;2023-04-22T04:06:04;9.10;99.90
13856;DHT22;6998;53.608;9.958;2023-04-22T04:08:30;9.10;99.90
13856;DHT22;6998;53.608;9.958;2023-04-22T04:10:57;9.30;99.90
13856;DHT22;6998;53.608;9.958;2023-04-22T04:13:24;9.10;99.90
13856;DHT22;6998;53.608;9.958;2023-04-22T04:15:55;9.10;99.90
13856;DHT22;6998;53.608;9.958;2023-04-22T04:18:22;9.10;99.90
13856;DHT22;6998;53.608;9.958;2023-04-22T04:20:50;9.00;99.90
13856;DHT22;6998;53.608;9.958;2023-04-22T04:23:16;9.00;99.90
13856;DHT22;6998;53.608;9.958;2023-04-22T04:25:43;9.00;99.90
13856;DHT22;6998;53.608;9.958;2023-04-22T04:28:10;9.00;99.90
13856;DHT22;6998;53.608;9.958;2023-04-22T04:30:38;8.90;99.90
13856;DHT22;6998;53.608;9.958;2023-04-22T04:33:07;8.90;99.90
13856;DHT22;6998;53.608;9.958;2023-04-22T04:35:35;9.00;99.90
13856;DHT22;6998;53.608;9.958;2023-04-22T04:38:02;9.00;99.90
13856;DHT22;6998;53.608;9.958;2023-04-22T04:40:32;9.00;99.90
13856;DHT22;6998;53.608;9.958;2023-04-22T04:43:03;9.00;99.90
13856;DHT22;6998;53.608;9.958;2023-04-22T04:45:33;9.00;99.90
13856;DHT22;6998;53.608;9.958;2023-04-22T04:48:01;9.10;99.90
13856;DHT22;6998;53.608;9.958;2023-04-22T04:50:29;9.10;99.90
13856;DHT22;6998;53.608;9.958;2023-04-22T04:53:02;9.10;99.90
13856;DHT22;6998;53.608;9.958;2023-04-22T04:55:29;9.20;99.90
13856;DHT22;6998;53.608;9.958;2023-04-22T04:57:56;9.30;99.90
13856;DHT22;6998;53.608;9.958;2023-04-22T05:00:22;9.30;99.90
13856;DHT22;6998;53.608;9.958;2023-04-22T05:02:49;9.40;99.90
13856;DHT22;6998;53.608;9.958;2023-04-22T05:05:16;9.40;99.90
13856;DHT22;6998;53.608;9.958;2023-04-22T05:07:46;9.50;99.90
13856;DHT22;6998;53.608;9.958;2023-04-22T05:10:17;9.50;99.90
13856;DHT22;6998;53.608;9.958;2023-04-22T05:12:44;9.50;99.90
13856;DHT22;6998;53.608;9.958;2023-04-22T05:15:12;9.50;99.90
13856;DHT22;6998;53.608;9.958;2023-04-22T05:17:42;9.50;99.90
13856;DHT22;6998;53.608;9.958;2023-04-22T05:20:10;9.60;99.90
13856;DHT22;6998;53.608;9.958;2023-04-22T05:22:37;9.70;99.90
13856;DHT22;6998;53.608;9.958;2023-04-22T05:25:17;9.90;99.90
13856;DHT22;6998;53.608;9.958;2023-04-22T05:27:46;9.90;99.90
13856;DHT22;6998;53.608;9.958;2023-04-22T05:30:13;9.90;99.90
13856;DHT22;6998;53.608;9.958;2023-04-22T05:32:40;10.00;99.90
13856;DHT22;6998;53.608;9.958;2023-04-22T05:35:07;10.10;99.90
13856;DHT22;6998;53.608;9.958;2023-04-22T05:37:34;10.20;99.90
13856;DHT22;6998;53.608;9.958;2023-04-22T05:40:01;10.40;99.90
13856;DHT22;6998;53.608;9.958;2023-04-22T05:42:29;10.40;99.90
13856;DHT22;6998;53.608;9.958;2023-04-22T05:44:56;10.60;99.90
13856;DHT22;6998;53.608;9.958;2023-04-22T05:47:23;10.60;99.90
13856;DHT22;6998;53.608;9.958;2023-04-22T05:49:50;10.70;99.90
13856;DHT22;6998;53.608;9.958;2023-04-22T05:52:17;10.80;99.90
13856;DHT22;6998;53.608;9.958;2023-04-22T05:54:43;10.90;99.90
13856;DHT22;6998;53.608;9.958;2023-04-22T05:57:14;10.90;99.90
13856;DHT22;6998;53.608;9.958;2023-04-22T05:59:42;10.90;99.90
13856;DHT22;6998;53.608;9.958;2023-04-22T06:02:09;11.10;99.90
13856;DHT22;6998;53.608;9.958;2023-04-22T06:04:36;11.20;99.90
13856;DHT22;6998;53.608;9.958;2023-04-22T06:07:04;11.30;99.90
13856;DHT22;6998;53.608;9.958;2023-04-22T06:09:31;11.40;99.90
13856;DHT22;6998;53.608;9.958;2023-04-22T06:11:58;11.40;99.90
13856;DHT22;6998;53.608;9.958;2023-04-22T06:14:24;11.50;99.90
13856;DHT22;6998;53.608;9.958;2023-04-22T06:16:52;11.60;99.90
13856;DHT22;6998;53.608;9.958;2023-04-22T06:19:19;11.70;99.90
13856;DHT22;6998;53.608;9.958;2023-04-22T06:21:46;11.80;99.90
13856;DHT22;6998;53.608;9.958;2023-04-22T06:24:13;11.90;99.90
13856;DHT22;6998;53.608;9.958;2023-04-22T06:26:40;12.00;99.90
13856;DHT22;6998;53.608;9.958;2023-04-22T06:29:07;12.00;99.90
13856;DHT22;6998;53.608;9.958;2023-04-22T06:31:33;12.10;99.90
13856;DHT22;6998;53.608;9.958;2023-04-22T06:34:01;12.20;99.90
13856;DHT22;6998;53.608;9.958;2023-04-22T06:36:29;12.30;99.90
13856;DHT22;6998;53.608;9.958;2023-04-22T06:38:56;12.40;99.90
13856;DHT22;6998;53.608;9.958;2023-04-22T06:41:23;12.60;99.90
13856;DHT22;6998;53.608;9.958;2023-04-22T06:43:50;12.60;99.90
13856;DHT22;6998;53.608;9.958;2023-04-22T06:46:17;12.70;99.90
13856;DHT22;6998;53.608;9.958;2023-04-22T06:48:43;12.80;99.90
13856;DHT22;6998;53.608;9.958;2023-04-22T06:51:11;12.80;99.90
13856;DHT22;6998;53.608;9.958;2023-04-22T06:53:40;12.90;99.90
13856;DHT22;6998;53.608;9.958;2023-04-22T06:56:07;13.00;99.90
13856;DHT22;6998;53.608;9.958;2023-04-22T06:58:33;13.10;99.90
13856;DHT22;6998;53.608;9.958;2023-04-22T07:01:00;13.20;99.90
13856;DHT22;6998;53.608;9.958;2023-04-22T07:03:27;13.30;99.90
13856;DHT22;6998;53.608;9.958;2023-04-22T07:05:54;13.30;99.90
13856;DHT22;6998;53.608;9.958;2023-04-22T07:08:22;13.40;99.90
13856;DHT22;6998;53.608;9.958;2023-04-22T07:10:50;13.50;99.90
13856;DHT22;6998;53.608;9.958;2023-04-22T07:13:17;13.60;99.90
13856;DHT22;6998;53.608;9.958;2023-04-22T07:15:46;13.80;99.90
13856;DHT22;6998;53.608;9.958;2023-04-22T07:18:34;13.80;99.90
13856;DHT22;6998;53.608;9.958;2023-04-22T07:21:01;14.00;99.90
13856;DHT22;6998;53.608;9.958;2023-04-22T07:23:31;14.10;99.90
13856;DHT22;6998;53.608;9.958;2023-04-22T07:25:58;14.20;99.90
13856;DHT22;6998;53.608;9.958;2023-04-22T07:28:25;14.30;99.90
13856;DHT22;6998;53.608;9.958;2023-04-22T07:30:53;14.50;99.90
13856;DHT22;6998;53.608;9.958;2023-04-22T07:33:20;14.60;99.90
13856;DHT22;6998;53.608;9.958;2023-04-22T07:35:49;14.80;99.90
13856;DHT22;6998;53.608;9.958;2023-04-22T07:38:16;14.90;99.90
13856;DHT22;6998;53.608;9.958;2023-04-22T07:40:44;15.00;99.90
13856;DHT22;6998;53.608;9.958;2023-04-22T07:43:11;15.10;99.90
13856;DHT22;6998;53.608;9.958;2023-04-22T07:45:39;15.20;99.90
13856;DHT22;6998;53.608;9.958;2023-04-22T07:48:06;15.30;99.90
13856;DHT22;6998;53.608;9.958;2023-04-22T07:50:33;15.50;99.90
13856;DHT22;6998;53.608;9.958;2023-04-22T07:53:00;15.50;99.90
13856;DHT22;6998;53.608;9.958;2023-04-22T07:55:27;15.70;99.90
13856;DHT22;6998;53.608;9.958;2023-04-22T07:57:55;15.80;99.90
13856;DHT22;6998;53.608;9.958;2023-04-22T08:00:27;15.80;99.90
13856;DHT22;6998;53.608;9.958;2023-04-22T08:02:54;15.90;99.90
13856;DHT22;6998;53.608;9.958;2023-04-22T08:05:20;15.80;99.90
13856;DHT22;6998;53.608;9.958;2023-04-22T08:07:47;16.00;99.90
13856;DHT22;6998;53.608;9.958;2023-04-22T08:10:14;16.00;99.90
13856;DHT22;6998;53.608;9.958;2023-04-22T08:12:41;16.10;99.90
13856;DHT22;6998;53.608;9.958;2023-04-22T08:15:09;16.00;99.90
13856;DHT22;6998;53.608;9.958;2023-04-22T08:17:36;16.00;99.90
13856;DHT22;6998;53.608;9.958;2023-04-22T08:20:04;16.10;99.90
13856;DHT22;6998;53.608;9.958;2023-04-22T08:22:31;16.20;99.90
13856;DHT22;6998;53.608;9.958;2023-04-22T08:24:59;16.40;99.90
13856;DHT22;6998;53.608;9.958;2023-04-22T08:27:30;16.40;99.90
13856;DHT22;6998;53.608;9.958;2023-04-22T08:29:57;16.40;99.90
13856;DHT22;6998;53.608;9.958;2023-04-22T08:32:25;16.60;99.90
13856;DHT22;6998;53.608;9.958;2023-04-22T08:34:52;16.70;99.90
13856;DHT22;6998;53.608;9.958;2023-04-22T08:37:19;16.90;99.90
13856;DHT22;6998;53.608;9.958;2023-04-22T08:39:46;17.10;99.90
13856;DHT22;6998;53.608;9.958;2023-04-22T08:42:13;17.20;99.90
13856;DHT22;6998;53.608;9.958;2023-04-22T08:44:41;17.40;99.90
13856;DHT22;6998;53.608;9.958;2023-04-22T08:47:08;17.60;99.90
13856;DHT22;6998;53.608;9.958;2023-04-22T08:49:37;17.70;99.90
13856;DHT22;6998;53.608;9.958;2023-04-22T08:52:14;17.90;99.90
13856;DHT22;6998;53.608;9.958;2023-04-22T08:54:41;18.00;99.90
13856;DHT22;6998;53.608;9.958;2023-04-22T08:57:08;18.10;99.90
13856;DHT22;6998;53.608;9.958;2023-04-22T08:59:36;18.00;99.90
13856;DHT22;6998;53.608;9.958;2023-04-22T09:02:04;18.00;99.90
13856;DHT22;6998;53.608;9.958;2023-04-22T09:04:31;18.20;99.90
13856;DHT22;6998;53.608;9.958;2023-04-22T09:07:00;18.30;99.90
13856;DHT22;6998;53.608;9.958;2023-04-22T09:09:29;18.30;99.90
13856;DHT22;6998;53.608;9.958;2023-04-22T09:11:56;18.50;99.90
13856;DHT22;6998;53.608;9.958;2023-04-22T09:14:23;18.70;99.90
13856;DHT22;6998;53.608;9.958;2023-04-22T09:16:51;18.80;99.90
13856;DHT22;6998;53.608;9.958;2023-04-22T09:19:22;19.00;99.90
13856;DHT22;6998;53.608;9.958;2023-04-22T09:21:49;19.20;99.90
13856;DHT22;6998;53.608;9.958;2023-04-22T09:24:18;19.40;99.90
13856;DHT22;6998;53.608;9.958;2023-04-22T09:26:45;19.30;99.90
13856;DHT22;6998;53.608;9.958;2023-04-22T09:29:14;19.40;99.90
13856;DHT22;6998;53.608;9.958;2023-04-22T09:31:41;19.30;99.90
13856;DHT22;6998;53.608;9.958;2023-04-22T09:34:08;19.30;99.90
13856;DHT22;6998;53.608;9.958;2023-04-22T09:36:35;19.30;99.90
13856;DHT22;6998;53.608;9.958;2023-04-22T09:39:04;19.40;99.90
13856;DHT22;6998;53.608;9.958;2023-04-22T09:41:33;19.60;99.90
13856;DHT22;6998;53.608;9.958;2023-04-22T09:44:02;19.80;99.90
13856;DHT22;6998;53.608;9.958;2023-04-22T09:46:30;20.00;99.90
13856;DHT22;6998;53.608;9.958;2023-04-22T09:48:59;20.30;99.90
13856;DHT22;6998;53.608;9.958;2023-04-22T09:51:26;20.30;99.90
13856;DHT22;6998;53.608;9.958;2023-04-22T09:53:57;20.50;99.90
13856;DHT22;6998;53.608;9.958;2023-04-22T09:56:44;20.80;99.90
13856;DHT22;6998;53.608;9.958;2023-04-22T09:59:13;21.00;99.90
13856;DHT22;6998;53.608;9.958;2023-04-22T10:01:41;20.80;99.90
13856;DHT22;6998;53.608;9.958;2023-04-22T10:04:08;20.90;99.90
13856;DHT22;6998;53.608;9.958;2023-04-22T10:06:35;21.00;99.90
13856;DHT22;6998;53.608;9.958;2023-04-22T10:09:03;21.20;99.90
13856;DHT22;6998;53.608;9.958;2023-04-22T10:11:30;21.30;99.90
13856;DHT22;6998;53.608;9.958;2023-04-22T10:13:59;21.20;99.90
13856;DHT22;6998;53.608;9.958;2023-04-22T10:16:27;21.30;99.90
13856;DHT22;6998;53.608;9.958;2023-04-22T10:18:57;21.30;99.90
13856;DHT22;6998;53.608;9.958;2023-04-22T10:21:25;21.30;99.90
13856;DHT22;6998;53.608;9.958;2023-04-22T10:23:53;21.30;99.90
13856;DHT22;6998;53.608;9.958;2023-04-22T10:26:39;21.50;99.90
13856;DHT22;6998;53.608;9.958;2023-04-22T10:29:11;21.60;99.90
13856;DHT22;6998;53.608;9.958;2023-04-22T10:31:42;21.50;99.90
13856;DHT22;6998;53.608;9.958;2023-04-22T10:34:10;21.70;99.90
13856;DHT22;6998;53.608;9.958;2023-04-22T10:36:52;21.90;99.90
13856;DHT22;6998;53.608;9.958;2023-04-22T10:39:21;21.90;99.90
13856;DHT22;6998;53.608;9.958;2023-04-22T10:41:53;21.90;99.90
13856;DHT22;6998;53.608;9.958;2023-04-22T10:44:21;22.10;99.90
13856;DHT22;6998;53.608;9.958;2023-04-22T10:46:55;22.30;99.90
13856;DHT22;6998;53.608;9.958;2023-04-22T10:49:24;22.30;99.90
13856;DHT22;6998;53.608;9.958;2023-04-22T10:51:54;22.40;99.90
13856;DHT22;6998;53.608;9.958;2023-04-22T10:54:56;22.60;99.90
13856;DHT22;6998;53.608;9.958;2023-04-22T10:57:29;22.90;99.90
13856;DHT22;6998;53.608;9.958;2023-04-22T11:00:19;22.70;99.90
13856;DHT22;6998;53.608;9.958;2023-04-22T11:02:49;22.70;99.90
13856;DHT22;6998;53.608;9.958;2023-04-22T11:05:18;22.70;99.90
13856;DHT22;6998;53.608;9.958;2023-04-22T11:07:46;22.60;99.90
13856;DHT22;6998;53.608;9.958;2023-04-22T11:10:36;22.60;99.90
13856;DHT22;6998;53.608;9.958;2023-04-22T11:13:07;22.80;99.90
13856;DHT22;6998;53.608;9.958;2023-04-22T11:15:37;22.80;99.90
13856;DHT22;6998;53.608;9.958;2023-04-22T11:18:08;22.80;99.90
13856;DHT22;6998;53.608;9.958;2023-04-22T11:20:36;22.80;99.90
13856;DHT22;6998;53.608;9.958;2023-04-22T11:23:02;22.90;99.90
13856;DHT22;6998;53.608;9.958;2023-04-22T11:25:30;23.00;99.90
13856;DHT22;6998;53.608;9.958;2023-04-22T11:27:57;23.30;99.90
13856;DHT22;6998;53.608;9.958;2023-04-22T11:30:25;23.50;99.90
13856;DHT22;6998;53.608;9.958;2023-04-22T11:32:54;23.60;99.90
13856;DHT22;6998;53.608;9.958;2023-04-22T11:35:23;23.80;99.90
13856;DHT22;6998;53.608;9.958;2023-04-22T11:37:51;23.70;99.90
13856;DHT22;6998;53.608;9.958;2023-04-22T11:40:20;23.70;99.90
13856;DHT22;6998;53.608;9.958;2023-04-22T11:42:49;23.80;99.90
13856;DHT22;6998;53.608;9.958;2023-04-22T11:45:17;23.80;99.90
13856;DHT22;6998;53.608;9.958;2023-04-22T11:47:43;23.90;99.90
13856;DHT22;6998;53.608;9.958;2023-04-22T11:50:13;23.90;99.90
13856;DHT22;6998;53.608;9.958;2023-04-22T11:52:42;24.10;99.90
13856;DHT22;6998;53.608;9.958;2023-04-22T11:55:10;24.20;99.90
13856;DHT22;6998;53.608;9.958;2023-04-22T11:57:36;24.10;99.90
13856;DHT22;6998;53.608;9.958;2023-04-22T12:00:04;24.20;99.90
13856;DHT22;6998;53.608;9.958;2023-04-22T12:02:31;24.40;99.90
13856;DHT22;6998;53.608;9.958;2023-04-22T12:04:58;24.20;99.90
13856;DHT22;6998;53.608;9.958;2023-04-22T12:07:27;24.30;99.90
13856;DHT22;6998;53.608;9.958;2023-04-22T12:09:54;24.20;99.90
13856;DHT22;6998;53.608;9.958;2023-04-22T12:12:23;24.30;99.90
13856;DHT22;6998;53.608;9.958;2023-04-22T12:14:51;24.60;99.90
13856;DHT22;6998;53.608;9.958;2023-04-22T12:17:22;24.60;99.90
13856;DHT22;6998;53.608;9.958;2023-04-22T12:19:52;24.60;99.90
13856;DHT22;6998;53.608;9.958;2023-04-22T12:22:23;24.70;99.90
13856;DHT22;6998;53.608;9.958;2023-04-22T12:24:52;24.80;99.90
13856;DHT22;6998;53.608;9.958;2023-04-22T12:27:19;25.00;99.90
13856;DHT22;6998;53.608;9.958;2023-04-22T12:29:53;25.00;99.50
13856;DHT22;6998;53.608;9.958;2023-04-22T12:32:21;25.00;99.90
13856;DHT22;6998;53.608;9.958;2023-04-22T12:34:48;24.80;99.90
13856;DHT22;6998;53.608;9.958;2023-04-22T12:37:15;24.80;99.90
13856;DHT22;6998;53.608;9.958;2023-04-22T12:39:42;24.70;99.70
13856;DHT22;6998;53.608;9.958;2023-04-22T12:42:10;24.70;99.90
13856;DHT22;6998;53.608;9.958;2023-04-22T12:44:37;24.90;99.90
13856;DHT22;6998;53.608;9.958;2023-04-22T12:47:03;24.80;99.80
13856;DHT22;6998;53.608;9.958;2023-04-22T12:49:30;25.00;99.50
13856;DHT22;6998;53.608;9.958;2023-04-22T12:51:57;25.00;99.90
13856;DHT22;6998;53.608;9.958;2023-04-22T12:54:24;25.20;99.10
13856;DHT22;6998;53.608;9.958;2023-04-22T12:56:51;25.00;99.70
13856;DHT22;6998;53.608;9.958;2023-04-22T12:59:19;25.20;99.60
13856;DHT22;6998;53.608;9.958;2023-04-22T13:01:46;25.40;99.20
13856;DHT22;6998;53.608;9.958;2023-04-22T13:04:12;25.40;99.40
13856;DHT22;6998;53.608;9.958;2023-04-22T13:06:39;25.30;99.90
13856;DHT22;6998;53.608;9.958;2023-04-22T13:09:07;24.80;99.60
13856;DHT22;6998;53.608;9.958;2023-04-22T13:11:33;24.90;99.60
13856;DHT22;6998;53.608;9.958;2023-04-22T13:14:01;24.70;99.60
13856;DHT22;6998;53.608;9.958;2023-04-22T13:16:29;24.80;99.60
13856;DHT22;6998;53.608;9.958;2023-04-22T13:18:56;25.00;99.10
13856;DHT22;6998;53.608;9.958;2023-04-22T13:21:23;25.10;99.90
13856;DHT22;6998;53.608;9.958;2023-04-22T13:23:50;25.10;99.20
13856;DHT22;6998;53.608;9.958;2023-04-22T13:26:17;25.00;99.90
13856;DHT22;6998;53.608;9.958;2023-04-22T13:28:44;25.00;99.90
13856;DHT22;6998;53.608;9.958;2023-04-22T13:31:11;24.80;99.90
13856;DHT22;6998;53.608;9.958;2023-04-22T13:33:39;24.60;99.90
13856;DHT22;6998;53.608;9.958;2023-04-22T13:36:06;24.70;99.90
13856;DHT22;6998;53.608;9.958;2023-04-22T13:38:32;25.00;99.90
13856;DHT22;6998;53.608;9.958;2023-04-22T13:40:59;25.20;98.90
13856;DHT22;6998;53.608;9.958;2023-04-22T13:43:26;25.20;99.90
13856;DHT22;6998;53.608;9.958;2023-04-22T13:45:53;25.10;99.10
13856;DHT22;6998;53.608;9.958;2023-04-22T13:48:19;25.10;99.90
13856;DHT22;6998;53.608;9.958;2023-04-22T13:50:47;24.40;99.90
13856;DHT22;6998;53.608;9.958;2023-04-22T13:53:14;24.30;99.90
13856;DHT22;6998;53.608;9.958;2023-04-22T13:55:41;24.20;99.90
13856;DHT22;6998;53.608;9.958;2023-04-22T13:58:08;24.20;99.90
13856;DHT22;6998;53.608;9.958;2023-04-22T14:00:35;24.30;99.80
13856;DHT22;6998;53.608;9.958;2023-04-22T14:03:01;24.40;99.90
13856;DHT22;6998;53.608;9.958;2023-04-22T14:05:28;24.50;99.90
13856;DHT22;6998;53.608;9.958;2023-04-22T14:07:58;24.60;99.90
13856;DHT22;6998;53.608;9.958;2023-04-22T14:10:25;24.40;99.40
13856;DHT22;6998;53.608;9.958;2023-04-22T14:12:52;24.30;99.60
13856;DHT22;6998;53.608;9.958;2023-04-22T14:15:19;24.30;99.60
13856;DHT22;6998;53.608;9.958;2023-04-22T14:17:45;24.10;99.10
13856;DHT22;6998;53.608;9.958;2023-04-22T14:20:14;24.00;99.90
13856;DHT22;6998;53.608;9.958;2023-04-22T14:22:40;23.80;99.80
13856;DHT22;6998;53.608;9.958;2023-04-22T14:25:09;23.60;99.90
13856;DHT22;6998;53.608;9.958;2023-04-22T14:27:36;23.60;99.90
13856;DHT22;6998;53.608;9.958;2023-04-22T14:30:03;23.50;99.90
13856;DHT22;6998;53.608;9.958;2023-04-22T14:32:30;23.30;99.90
13856;DHT22;6998;53.608;9.958;2023-04-22T14:34:57;23.30;99.90
13856;DHT22;6998;53.608;9.958;2023-04-22T14:37:24;23.40;99.90
13856;DHT22;6998;53.608;9.958;2023-04-22T14:39:51;23.50;99.90
13856;DHT22;6998;53.608;9.958;2023-04-22T14:42:19;23.60;99.90
13856;DHT22;6998;53.608;9.958;2023-04-22T14:44:46;23.80;99.90
13856;DHT22;6998;53.608;9.958;2023-04-22T14:47:12;23.90;99.80
13856;DHT22;6998;53.608;9.958;2023-04-22T14:49:39;24.10;99.90
13856;DHT22;6998;53.608;9.958;2023-04-22T14:52:06;24.20;99.90
13856;DHT22;6998;53.608;9.958;2023-04-22T14:54:33;24.30;99.90
13856;DHT22;6998;53.608;9.958;2023-04-22T14:57:00;24.30;99.90
13856;DHT22;6998;53.608;9.958;2023-04-22T14:59:28;24.30;99.80
13856;DHT22;6998;53.608;9.958;2023-04-22T15:01:55;24.20;99.90
13856;DHT22;6998;53.608;9.958;2023-04-22T15:04:23;24.20;99.90
13856;DHT22;6998;53.608;9.958;2023-04-22T15:06:49;24.20;99.50
13856;DHT22;6998;53.608;9.958;2023-04-22T15:09:17;24.20;99.70
13856;DHT22;6998;53.608;9.958;2023-04-22T15:11:44;24.20;99.90
13856;DHT22;6998;53.608;9.958;2023-04-22T15:14:11;24.20;99.90
13856;DHT22;6998;53.608;9.958;2023-04-22T15:16:39;24.20;99.90
13856;DHT22;6998;53.608;9.958;2023-04-22T15:19:05;24.20;99.50
13856;DHT22;6998;53.608;9.958;2023-04-22T15:21:32;24.10;99.90
13856;DHT22;6998;53.608;9.958;2023-04-22T15:23:59;24.00;99.90
13856;DHT22;6998;53.608;9.958;2023-04-22T15:26:26;24.00;99.90
13856;DHT22;6998;53.608;9.958;2023-04-22T15:28:52;24.00;99.90
13856;DHT22;6998;53.608;9.958;2023-04-22T15:31:20;24.10;99.90
13856;DHT22;6998;53.608;9.958;2023-04-22T15:33:48;24.30;99.90
13856;DHT22;6998;53.608;9.958;2023-04-22T15:36:15;24.40;99.50
13856;DHT22;6998;53.608;9.958;2023-04-22T15:38:45;24.40;99.80
13856;DHT22;6998;53.608;9.958;2023-04-22T15:41:12;24.40;99.60
13856;DHT22;6998;53.608;9.958;2023-04-22T15:43:40;24.30;99.70
13856;DHT22;6998;53.608;9.958;2023-04-22T15:46:06;24.20;99.80
13856;DHT22;6998;53.608;9.958;2023-04-22T15:48:34;24.00;99.90
13856;DHT22;6998;53.608;9.958;2023-04-22T15:51:02;24.00;99.90
13856;DHT22;6998;53.608;9.958;2023-04-22T15:53:29;24.00;99.90
13856;DHT22;6998;53.608;9.958;2023-04-22T15:55:56;23.90;99.90
13856;DHT22;6998;53.608;9.958;2023-04-22T15:58:23;23.80;99.90